Time;durP1;ratioP1;P1;durP2;ratioP2;P2;SDS_P1;SDS_P2;PMS_P1;PMS_P2;Temp;Humidity;BMP_temperature;BMP_pressure;BME280_temperature;BME280_humidity;BME280_pressure;Samples;Min_cycle;Max_cycle;Signal;HPM_P1;HPM_P2
2022/08/04 00:02:41;;;;;;;4.13;2.40;;;;;;;;;;4949736;28;20221;-72
2022/08/04 00:05:11;;;;;;;2.20;2.10;;;;;;;;;;4955633;28;20181;-72
2022/08/04 00:07:39;;;;;;;3.97;2.13;;;;;;;;;;4936798;29;20220;-72
2022/08/04 00:10:05;;;;;;;3.10;2.20;;;;;;;;;;4949863;29;20189;-71
2022/08/04 00:12:34;;;;;;;2.22;2.10;;;;;;;;;;4951825;28;20185;-71
2022/08/04 00:15:00;;;;;;;2.13;1.92;;;;;;;;;;4951930;28;20219;-72
2022/08/04 00:17:37;;;;;;;2.22;2.13;;;;;;;;;;4957263;28;20192;-72
2022/08/04 00:20:04;;;;;;;1.88;1.77;;;;;;;;;;4957061;28;20265;-72
2022/08/04 00:22:29;;;;;;;2.72;2.30;;;;;;;;;;4953830;28;20368;-72
2022/08/04 00:24:56;;;;;;;1.95;1.85;;;;;;;;;;4953478;28;20272;-72
2022/08/04 00:27:21;;;;;;;2.63;2.05;;;;;;;;;;4971045;28;20219;-72
2022/08/04 00:29:46;;;;;;;2.30;2.10;;;;;;;;;;5044166;28;20178;-72
2022/08/04 00:32:12;;;;;;;2.17;1.98;;;;;;;;;;5053875;28;20197;-73
2022/08/04 00:34:37;;;;;;;2.25;2.00;;;;;;;;;;5054312;28;20213;-71
2022/08/04 00:37:03;;;;;;;2.08;1.98;;;;;;;;;;5053907;28;20178;-72
2022/08/04 00:39:48;;;;;;;3.17;2.05;;;;;;;;;;5034944;28;20337;-71
2022/08/04 00:42:14;;;;;;;3.83;2.20;;;;;;;;;;5032085;28;20236;-73
2022/08/04 00:44:58;;;;;;;5.93;2.30;;;;;;;;;;5042413;28;20257;-72
2022/08/04 00:47:35;;;;;;;2.30;1.90;;;;;;;;;;5054677;28;20202;-71
2022/08/04 00:50:11;;;;;;;2.50;2.30;;;;;;;;;;5042630;28;20259;-72
2022/08/04 00:52:45;;;;;;;3.95;2.30;;;;;;;;;;5046085;28;20201;-72
2022/08/04 00:55:29;;;;;;;2.25;1.90;;;;;;;;;;5042532;28;20166;-72
2022/08/04 00:58:02;;;;;;;2.55;2.38;;;;;;;;;;5038290;28;20178;-72
2022/08/04 01:00:31;;;;;;;2.60;2.40;;;;;;;;;;5046881;28;20179;-72
2022/08/04 01:03:06;;;;;;;2.65;2.30;;;;;;;;;;5028263;28;20185;-72
2022/08/04 01:05:50;;;;;;;2.58;2.35;;;;;;;;;;5038561;28;20191;-72
2022/08/04 01:08:33;;;;;;;5.53;2.30;;;;;;;;;;5052369;28;20190;-72
2022/08/04 01:11:04;;;;;;;2.85;2.17;;;;;;;;;;5028843;28;20185;-72
2022/08/04 01:13:47;;;;;;;2.28;2.08;;;;;;;;;;5046517;28;20178;-72
2022/08/04 01:16:15;;;;;;;2.50;2.30;;;;;;;;;;5033506;28;20174;-72
2022/08/04 01:18:40;;;;;;;4.82;2.42;;;;;;;;;;5051452;28;20201;-72
2022/08/04 01:21:20;;;;;;;2.55;2.35;;;;;;;;;;5030241;28;20182;-72
2022/08/04 01:24:09;;;;;;;3.50;2.45;;;;;;;;;;5018959;28;20244;-73
2022/08/04 01:26:53;;;;;;;2.25;2.10;;;;;;;;;;5003434;28;20329;-72
2022/08/04 01:29:21;;;;;;;4.05;2.00;;;;;;;;;;5034690;28;20178;-73
2022/08/04 01:31:54;;;;;;;2.50;2.30;;;;;;;;;;5014207;28;20181;-72
2022/08/04 01:34:21;;;;;;;2.60;2.40;;;;;;;;;;5026505;28;20254;-71
2022/08/04 01:36:54;;;;;;;3.85;2.38;;;;;;;;;;5013898;28;20183;-72
2022/08/04 01:42:03;;;;;;;2.30;2.10;;;;;;;;;;5031489;28;20201;-71
2022/08/04 01:44:29;;;;;;;2.70;2.10;;;;;;;;;;5016331;28;20187;-72
2022/08/04 01:46:55;;;;;;;6.43;2.72;;;;;;;;;;5018332;28;20273;-72
2022/08/04 01:49:21;;;;;;;2.20;2.00;;;;;;;;;;5010544;28;20179;-72
2022/08/04 01:51:48;;;;;;;2.50;2.30;;;;;;;;;;5033158;28;20175;-71
2022/08/04 01:54:16;;;;;;;2.38;2.17;;;;;;;;;;5013096;28;20209;-72
2022/08/04 01:56:42;;;;;;;2.80;2.60;;;;;;;;;;5030487;28;20247;-73
2022/08/04 01:59:08;;;;;;;2.10;2.00;;;;;;;;;;5014571;28;20179;-72
2022/08/04 02:01:34;;;;;;;2.75;2.55;;;;;;;;;;5032885;28;20240;-72
2022/08/04 02:03:59;;;;;;;4.55;2.50;;;;;;;;;;5031107;28;20179;-72
2022/08/04 02:06:30;;;;;;;4.95;2.25;;;;;;;;;;5012264;28;20276;-72
2022/08/04 02:09:15;;;;;;;2.33;2.13;;;;;;;;;;5010544;28;20163;-71
2022/08/04 02:11:44;;;;;;;3.03;2.05;;;;;;;;;;5007951;28;20183;-73
2022/08/04 02:14:39;;;;;;;2.00;1.90;;;;;;;;;;5031389;28;20190;-72
2022/08/04 02:17:08;;;;;;;2.00;1.90;;;;;;;;;;5026877;28;20182;-72
2022/08/04 02:19:44;;;;;;;2.35;2.15;;;;;;;;;;5030599;28;20198;-73
2022/08/04 02:22:14;;;;;;;5.22;2.53;;;;;;;;;;5031772;28;20309;-71
2022/08/04 02:24:44;;;;;;;2.30;2.10;;;;;;;;;;5045776;28;20186;-72
2022/08/04 02:27:11;;;;;;;2.22;2.03;;;;;;;;;;5033700;28;20288;-72
2022/08/04 02:29:45;;;;;;;2.28;2.08;;;;;;;;;;5045719;28;20192;-72
2022/08/04 02:32:18;;;;;;;2.10;1.90;;;;;;;;;;5032270;28;20225;-72
2022/08/04 02:34:43;;;;;;;2.35;2.15;;;;;;;;;;5050342;28;20178;-72
2022/08/04 02:37:09;;;;;;;2.35;2.08;;;;;;;;;;5041901;28;20234;-71
2022/08/04 02:39:35;;;;;;;2.03;1.80;;;;;;;;;;5040534;28;20182;-72
2022/08/04 02:42:04;;;;;;;2.20;2.03;;;;;;;;;;5035345;28;20410;-72
2022/08/04 02:44:30;;;;;;;2.70;2.25;;;;;;;;;;5033283;28;20179;-72
2022/08/04 02:46:55;;;;;;;2.22;2.05;;;;;;;;;;5036632;28;20191;-72
2022/08/04 02:49:21;;;;;;;2.38;2.17;;;;;;;;;;5048606;28;20178;-72
2022/08/04 02:51:51;;;;;;;2.38;2.17;;;;;;;;;;5032306;28;20174;-71
2022/08/04 02:54:18;;;;;;;3.10;2.15;;;;;;;;;;5032252;28;20178;-72
2022/08/04 02:56:44;;;;;;;2.30;2.10;;;;;;;;;;5036664;28;20171;-72
2022/08/04 02:59:10;;;;;;;2.00;1.90;;;;;;;;;;5049885;28;20186;-72
2022/08/04 03:01:36;;;;;;;2.95;2.13;;;;;;;;;;5047238;28;20181;-72
2022/08/04 03:04:13;;;;;;;2.40;2.10;;;;;;;;;;5025766;28;20178;-73
2022/08/04 03:06:57;;;;;;;2.67;2.00;;;;;;;;;;5049964;28;20194;-72
2022/08/04 03:09:40;;;;;;;2.08;1.95;;;;;;;;;;5038261;28;20174;-72
2022/08/04 03:12:05;;;;;;;2.70;2.00;;;;;;;;;;5029522;28;20174;-72
2022/08/04 03:14:50;;;;;;;2.33;2.13;;;;;;;;;;5031592;28;20189;-72
2022/08/04 03:17:34;;;;;;;2.75;2.10;;;;;;;;;;5059785;28;20173;-72
2022/08/04 03:20:05;;;;;;;2.28;2.08;;;;;;;;;;5051825;28;20181;-72
2022/08/04 03:22:43;;;;;;;2.63;2.20;;;;;;;;;;5045633;28;20269;-72
2022/08/04 03:25:11;;;;;;;1.90;1.80;;;;;;;;;;5027619;28;20198;-71
2022/08/04 03:27:48;;;;;;;1.83;1.70;;;;;;;;;;5014913;28;20217;-71
2022/08/04 03:30:18;;;;;;;2.60;2.40;;;;;;;;;;5020669;28;20270;-73
2022/08/04 03:32:52;;;;;;;2.10;1.90;;;;;;;;;;5020370;28;20186;-72
2022/08/04 03:35:17;;;;;;;2.97;2.28;;;;;;;;;;5029799;28;20182;-72
2022/08/04 03:38:01;;;;;;;3.42;2.00;;;;;;;;;;5033904;28;20171;-72
2022/08/04 03:40:26;;;;;;;2.60;2.40;;;;;;;;;;5032810;28;20201;-72
2022/08/04 03:43:10;;;;;;;2.28;2.08;;;;;;;;;;5041409;28;20175;-72
2022/08/04 03:45:54;;;;;;;2.20;2.00;;;;;;;;;;5032568;28;20182;-72
2022/08/04 03:48:19;;;;;;;2.30;2.08;;;;;;;;;;5028001;28;20236;-72
2022/08/04 03:53:07;;;;;;;2.08;1.95;;;;;;;;;;5032506;28;20182;-72
2022/08/04 03:53:43;;;;;;;2.42;2.22;;;;;;;;;;5035670;28;20201;-72
2022/08/04 03:56:28;;;;;;;1.88;1.73;;;;;;;;;;5014009;28;20176;-72
2022/08/04 03:59:06;;;;;;;2.10;2.00;;;;;;;;;;5012388;28;20171;-72
2022/08/04 04:01:43;;;;;;;2.10;2.00;;;;;;;;;;5044048;28;20232;-73
2022/08/04 04:04:26;;;;;;;1.95;1.85;;;;;;;;;;5028870;28;20237;-72
2022/08/04 04:06:58;;;;;;;1.80;1.70;;;;;;;;;;5027525;28;20195;-71
2022/08/04 04:09:55;;;;;;;2.15;2.00;;;;;;;;;;5023806;28;20201;-72
2022/08/04 04:12:35;;;;;;;1.98;1.80;;;;;;;;;;5032909;28;20213;-72
2022/08/04 04:15:03;;;;;;;1.90;1.80;;;;;;;;;;5033664;28;20179;-72
2022/08/04 04:17:43;;;;;;;2.00;1.80;;;;;;;;;;5040162;28;20201;-71
2022/08/04 04:20:31;;;;;;;2.35;2.15;;;;;;;;;;5029486;28;20179;-72
2022/08/04 04:23:15;;;;;;;2.83;1.90;;;;;;;;;;5017455;28;20246;-71
2022/08/04 04:25:43;;;;;;;2.33;2.13;;;;;;;;;;5047998;28;20193;-72
2022/08/04 04:28:27;;;;;;;2.30;2.20;;;;;;;;;;5032872;28;20202;-72
2022/08/04 04:31:16;;;;;;;2.38;2.17;;;;;;;;;;5050683;28;20748;-72
2022/08/04 04:33:47;;;;;;;3.03;2.25;;;;;;;;;;5051614;28;20374;-71
2022/08/04 04:36:33;;;;;;;3.65;2.28;;;;;;;;;;5051595;28;20256;-72
2022/08/04 04:39:07;;;;;;;2.10;1.90;;;;;;;;;;5032653;28;20178;-72
2022/08/04 04:41:42;;;;;;;1.98;1.88;;;;;;;;;;5049705;28;20174;-71
2022/08/04 04:44:22;;;;;;;2.45;2.13;;;;;;;;;;5028839;28;20215;-72
2022/08/04 04:46:51;;;;;;;2.40;2.20;;;;;;;;;;5050027;28;20244;-72
2022/08/04 04:49:23;;;;;;;10.68;2.40;;;;;;;;;;5048398;28;20174;-74
2022/08/04 04:51:50;;;;;;;2.10;1.90;;;;;;;;;;5034112;28;20224;-75
2022/08/04 04:54:23;;;;;;;2.30;2.10;;;;;;;;;;5036019;28;20230;-75
2022/08/04 04:56:48;;;;;;;2.20;2.00;;;;;;;;;;5049141;28;20190;-75
2022/08/04 04:59:15;;;;;;;4.35;2.38;;;;;;;;;;5034103;28;20178;-75
2022/08/04 05:01:50;;;;;;;3.65;2.17;;;;;;;;;;5054040;28;20190;-75
2022/08/04 05:04:44;;;;;;;2.90;2.13;;;;;;;;;;5041553;28;20173;-74
2022/08/04 05:07:20;;;;;;;1.90;1.80;;;;;;;;;;5034166;28;20208;-75
2022/08/04 05:09:54;;;;;;;2.60;2.33;;;;;;;;;;5031054;28;20209;-75
2022/08/04 05:12:19;;;;;;;3.00;2.30;;;;;;;;;;5052235;28;20188;-74
2022/08/04 05:14:46;;;;;;;2.17;1.98;;;;;;;;;;5028765;28;20174;-76
2022/08/04 05:17:24;;;;;;;2.33;2.13;;;;;;;;;;5043961;28;20320;-74
2022/08/04 05:19:52;;;;;;;2.45;2.20;;;;;;;;;;5037691;28;20243;-75
2022/08/04 05:22:21;;;;;;;2.08;1.88;;;;;;;;;;5040759;28;20285;-75
2022/08/04 05:24:48;;;;;;;2.05;1.95;;;;;;;;;;5046265;28;20194;-74
2022/08/04 05:27:15;;;;;;;3.85;2.10;;;;;;;;;;5049640;28;20237;-76
2022/08/04 05:29:50;;;;;;;2.08;1.98;;;;;;;;;;5032352;28;20174;-76
2022/08/04 05:32:18;;;;;;;2.35;2.15;;;;;;;;;;5046728;28;20182;-75
2022/08/04 05:34:46;;;;;;;2.28;2.00;;;;;;;;;;5051385;28;20174;-74
2022/08/04 05:37:14;;;;;;;2.70;2.28;;;;;;;;;;5034509;28;20178;-74
2022/08/04 05:39:45;;;;;;;2.25;2.05;;;;;;;;;;5032706;28;20178;-75
2022/08/04 05:42:11;;;;;;;2.25;2.05;;;;;;;;;;5057422;28;20174;-76
2022/08/04 05:44:37;;;;;;;4.03;2.00;;;;;;;;;;5036216;28;20236;-75
2022/08/04 05:47:04;;;;;;;2.63;2.33;;;;;;;;;;5026653;28;20220;-75
2022/08/04 05:49:29;;;;;;;2.30;2.10;;;;;;;;;;5029930;28;20210;-75
2022/08/04 05:51:57;;;;;;;2.25;2.10;;;;;;;;;;5053835;28;20213;-75
2022/08/04 05:54:23;;;;;;;2.63;2.08;;;;;;;;;;5039748;28;20169;-75
2022/08/04 05:56:49;;;;;;;1.95;1.85;;;;;;;;;;5049113;28;20187;-75
2022/08/04 05:59:16;;;;;;;2.50;2.30;;;;;;;;;;5030391;28;20224;-75
2022/08/04 06:01:43;;;;;;;2.67;2.30;;;;;;;;;;5034114;28;20260;-75
2022/08/04 06:04:08;;;;;;;2.58;2.33;;;;;;;;;;5033382;28;20490;-75
2022/08/04 06:06:34;;;;;;;2.67;2.50;;;;;;;;;;5036165;28;20207;-76
2022/08/04 06:08:59;;;;;;;2.17;2.05;;;;;;;;;;5046806;28;20265;-75
2022/08/04 06:11:26;;;;;;;2.72;2.40;;;;;;;;;;5040200;28;20177;-75
2022/08/04 06:14:00;;;;;;;3.53;2.53;;;;;;;;;;5033280;28;20539;-75
2022/08/04 06:16:27;;;;;;;2.65;2.10;;;;;;;;;;5036066;28;20178;-75
2022/08/04 06:18:56;;;;;;;2.63;2.42;;;;;;;;;;5030773;28;20197;-75
2022/08/04 06:21:21;;;;;;;2.65;2.45;;;;;;;;;;5029847;28;20229;-75
2022/08/04 06:23:47;;;;;;;3.85;2.67;;;;;;;;;;5041257;28;20233;-75
2022/08/04 06:26:18;;;;;;;2.50;2.30;;;;;;;;;;5034032;28;20217;-74
2022/08/04 06:28:44;;;;;;;4.13;2.58;;;;;;;;;;5044639;28;20213;-76
2022/08/04 06:31:10;;;;;;;2.38;2.17;;;;;;;;;;5035760;28;20170;-75
2022/08/04 06:33:37;;;;;;;2.33;2.13;;;;;;;;;;5033094;28;20182;-75
2022/08/04 06:36:06;;;;;;;6.00;2.95;;;;;;;;;;5035952;28;20205;-76
2022/08/04 06:38:32;;;;;;;6.90;2.30;;;;;;;;;;5033020;28;20178;-75
2022/08/04 06:40:58;;;;;;;2.60;2.40;;;;;;;;;;5038696;28;20171;-75
2022/08/04 06:43:25;;;;;;;3.05;2.60;;;;;;;;;;5046976;28;20174;-75
2022/08/04 06:45:51;;;;;;;4.88;2.45;;;;;;;;;;5034112;28;20206;-75
2022/08/04 06:48:17;;;;;;;3.75;2.53;;;;;;;;;;5049836;28;20388;-75
2022/08/04 06:50:46;;;;;;;2.60;2.40;;;;;;;;;;5032862;28;20174;-75
2022/08/04 06:53:12;;;;;;;2.83;2.58;;;;;;;;;;5032930;28;20174;-75
2022/08/04 06:55:38;;;;;;;2.55;2.33;;;;;;;;;;5053684;28;20178;-76
2022/08/04 06:58:04;;;;;;;2.88;2.40;;;;;;;;;;5032039;28;20171;-76
2022/08/04 07:00:30;;;;;;;2.40;2.20;;;;;;;;;;5035835;28;20212;-76
2022/08/04 07:02:56;;;;;;;3.42;2.42;;;;;;;;;;5037821;28;20196;-75
2022/08/04 07:05:22;;;;;;;2.80;2.47;;;;;;;;;;5031662;28;20186;-76
2022/08/04 07:07:47;;;;;;;4.78;2.50;;;;;;;;;;5050857;28;20202;-76
2022/08/04 07:10:13;;;;;;;2.75;2.55;;;;;;;;;;5041889;28;20261;-75
2022/08/04 07:12:39;;;;;;;2.67;2.42;;;;;;;;;;5061531;28;20202;-75
2022/08/04 07:15:05;;;;;;;2.50;2.30;;;;;;;;;;5041850;28;20170;-75
2022/08/04 07:17:30;;;;;;;3.88;2.40;;;;;;;;;;5044028;28;20213;-75
2022/08/04 07:19:56;;;;;;;2.53;2.40;;;;;;;;;;5032211;28;20222;-75
2022/08/04 07:22:23;;;;;;;5.60;2.60;;;;;;;;;;5035252;28;20234;-76
2022/08/04 07:24:52;;;;;;;2.97;2.55;;;;;;;;;;5037619;28;20242;-76
2022/08/04 07:27:18;;;;;;;4.30;2.72;;;;;;;;;;5036862;28;20198;-76
2022/08/04 07:29:43;;;;;;;2.80;2.60;;;;;;;;;;5042840;28;20205;-75
2022/08/04 07:32:09;;;;;;;2.72;2.53;;;;;;;;;;5018996;28;20222;-75
2022/08/04 07:34:36;;;;;;;3.15;2.85;;;;;;;;;;5034709;28;20243;-75
2022/08/04 07:37:01;;;;;;;2.50;2.30;;;;;;;;;;5058972;28;20174;-75
2022/08/04 07:39:28;;;;;;;3.28;2.58;;;;;;;;;;5054589;28;20185;-76
2022/08/04 07:41:54;;;;;;;3.33;2.70;;;;;;;;;;5062913;28;20265;-75
2022/08/04 07:44:19;;;;;;;3.20;2.72;;;;;;;;;;5056320;28;20182;-75
2022/08/04 07:46:45;;;;;;;2.70;2.35;;;;;;;;;;5058957;28;20219;-75
2022/08/04 07:49:11;;;;;;;2.72;2.53;;;;;;;;;;5045975;28;20206;-75
2022/08/04 07:51:36;;;;;;;2.88;2.50;;;;;;;;;;5060921;28;20177;-76
2022/08/04 07:54:03;;;;;;;4.50;2.83;;;;;;;;;;5060203;28;20173;-75
2022/08/04 07:56:29;;;;;;;3.30;3.03;;;;;;;;;;5013627;28;20321;-75
2022/08/04 07:58:55;;;;;;;2.50;2.30;;;;;;;;;;5034647;28;20234;-75
2022/08/04 08:01:20;;;;;;;3.33;3.03;;;;;;;;;;5042645;28;20181;-75
2022/08/04 08:03:46;;;;;;;2.88;2.67;;;;;;;;;;5040792;28;20183;-75
2022/08/04 08:06:12;;;;;;;3.38;3.03;;;;;;;;;;5040366;28;20178;-76
2022/08/04 08:08:38;;;;;;;3.45;2.80;;;;;;;;;;5033307;28;20178;-76
2022/08/04 08:11:04;;;;;;;3.58;2.97;;;;;;;;;;5062140;28;20330;-75
2022/08/04 08:13:29;;;;;;;3.22;3.03;;;;;;;;;;5040263;28;20198;-75
2022/08/04 08:15:54;;;;;;;4.75;4.35;;;;;;;;;;5055867;28;20205;-75
2022/08/04 08:18:20;;;;;;;3.05;2.85;;;;;;;;;;5044331;28;20234;-75
2022/08/04 08:20:45;;;;;;;3.67;2.90;;;;;;;;;;5046995;28;20189;-76
2022/08/04 08:23:10;;;;;;;4.80;2.75;;;;;;;;;;5041403;28;20229;-75
2022/08/04 08:25:37;;;;;;;2.63;2.42;;;;;;;;;;5049480;28;20288;-76
2022/08/04 08:28:03;;;;;;;3.33;3.03;;;;;;;;;;5033416;28;20233;-75
2022/08/04 08:30:29;;;;;;;2.83;2.63;;;;;;;;;;5051764;28;20178;-75
2022/08/04 08:32:54;;;;;;;3.80;2.83;;;;;;;;;;5056178;28;20185;-75
2022/08/04 08:35:21;;;;;;;3.20;2.80;;;;;;;;;;5044333;28;20185;-74
2022/08/04 08:37:51;;;;;;;3.10;2.90;;;;;;;;;;5036101;28;20181;-74
2022/08/04 08:40:46;;;;;;;2.85;2.65;;;;;;;;;;5053880;28;20185;-75
2022/08/04 08:43:26;;;;;;;3.08;2.80;;;;;;;;;;5019271;28;20186;-75
2022/08/04 08:46:00;;;;;;;3.03;2.83;;;;;;;;;;5023328;28;20181;-76
2022/08/04 08:48:25;;;;;;;3.00;2.78;;;;;;;;;;5036231;28;20247;-76
2022/08/04 08:51:05;;;;;;;3.20;2.67;;;;;;;;;;5053283;28;20186;-74
2022/08/04 08:53:57;;;;;;;3.45;3.00;;;;;;;;;;5054449;28;20404;-75
2022/08/04 08:56:30;;;;;;;5.10;2.78;;;;;;;;;;5019353;28;20209;-75
2022/08/04 08:58:55;;;;;;;2.75;2.55;;;;;;;;;;5032569;28;20174;-75
2022/08/04 09:01:35;;;;;;;3.03;2.83;;;;;;;;;;5055192;28;20181;-75
2022/08/04 09:04:19;;;;;;;3.42;2.67;;;;;;;;;;5048865;28;20182;-75
2022/08/04 09:07:07;;;;;;;3.00;2.80;;;;;;;;;;5053253;28;20244;-75
2022/08/04 09:09:44;;;;;;;3.78;2.85;;;;;;;;;;5055008;28;20178;-75
2022/08/04 09:12:14;;;;;;;2.50;2.30;;;;;;;;;;5058221;28;20199;-74
2022/08/04 09:14:42;;;;;;;3.53;2.53;;;;;;;;;;5044531;28;20196;-75
2022/08/04 09:17:17;;;;;;;2.80;2.55;;;;;;;;;;5054216;28;20206;-74
2022/08/04 09:19:51;;;;;;;3.97;2.47;;;;;;;;;;5035640;28;20207;-75
2022/08/04 09:22:32;;;;;;;3.38;3.08;;;;;;;;;;5034186;28;20184;-75
2022/08/04 09:24:57;;;;;;;3.03;2.72;;;;;;;;;;5053210;28;20194;-75
2022/08/04 09:27:41;;;;;;;3.03;2.78;;;;;;;;;;5037659;28;20202;-76
2022/08/04 09:30:07;;;;;;;3.20;2.72;;;;;;;;;;5050687;28;20180;-76
2022/08/04 09:32:35;;;;;;;2.85;2.65;;;;;;;;;;5029682;28;20190;-76
2022/08/04 09:35:19;;;;;;;2.42;2.22;;;;;;;;;;5036318;28;20217;-75
2022/08/04 09:37:51;;;;;;;4.70;3.03;;;;;;;;;;5051438;28;20269;-74
2022/08/04 09:40:19;;;;;;;2.67;2.47;;;;;;;;;;5036310;28;20181;-75
2022/08/04 09:42:51;;;;;;;3.92;2.78;;;;;;;;;;5042417;28;20179;-75
2022/08/04 09:45:22;;;;;;;2.70;2.50;;;;;;;;;;5049395;28;20235;-75
2022/08/04 09:47:59;;;;;;;3.05;2.65;;;;;;;;;;5056375;28;20213;-76
2022/08/04 09:50:27;;;;;;;2.90;2.60;;;;;;;;;;5030198;28;20174;-75
2022/08/04 09:52:56;;;;;;;3.22;2.95;;;;;;;;;;5033211;28;20174;-76
2022/08/04 09:55:25;;;;;;;4.88;2.70;;;;;;;;;;5048158;28;20178;-75
2022/08/04 09:57:50;;;;;;;2.95;2.75;;;;;;;;;;5048742;28;20225;-75
2022/08/04 10:00:16;;;;;;;3.77;2.70;;;;;;;;;;5051070;28;20237;-75
2022/08/04 10:02:43;;;;;;;3.20;3.00;;;;;;;;;;5032076;28;20431;-75
2022/08/04 10:05:13;;;;;;;2.90;2.70;;;;;;;;;;5033361;28;20178;-75
2022/08/04 10:07:47;;;;;;;3.03;2.83;;;;;;;;;;5036492;28;20202;-75
2022/08/04 10:10:24;;;;;;;3.28;2.80;;;;;;;;;;5055607;28;20169;-75
2022/08/04 10:13:08;;;;;;;4.78;2.70;;;;;;;;;;5047748;28;20178;-75
2022/08/04 10:15:44;;;;;;;6.93;3.10;;;;;;;;;;5034667;28;20181;-76
2022/08/04 10:18:28;;;;;;;3.88;2.88;;;;;;;;;;5033386;28;20269;-75
2022/08/04 10:21:00;;;;;;;3.17;2.88;;;;;;;;;;5033827;28;20197;-75
2022/08/04 10:23:44;;;;;;;5.50;2.80;;;;;;;;;;5023124;28;20235;-75
2022/08/04 10:26:24;;;;;;;3.40;3.10;;;;;;;;;;5039855;28;20182;-75
2022/08/04 10:29:16;;;;;;;2.70;2.50;;;;;;;;;;5031613;28;20198;-75
2022/08/04 10:31:53;;;;;;;3.10;2.80;;;;;;;;;;5001272;28;20182;-75
2022/08/04 10:34:20;;;;;;;5.15;2.50;;;;;;;;;;5052061;28;20238;-75
2022/08/04 10:37:03;;;;;;;2.80;2.60;;;;;;;;;;5034003;28;20181;-75
2022/08/04 10:39:36;;;;;;;3.25;2.95;;;;;;;;;;5056053;28;20178;-75
2022/08/04 10:42:25;;;;;;;2.58;2.38;;;;;;;;;;5047629;28;20183;-75
2022/08/04 10:45:00;;;;;;;2.75;2.55;;;;;;;;;;5049308;28;20190;-75
2022/08/04 10:47:29;;;;;;;2.78;2.60;;;;;;;;;;5027700;28;20209;-75
2022/08/04 10:49:57;;;;;;;3.05;2.30;;;;;;;;;;5046799;28;20223;-75
2022/08/04 10:52:34;;;;;;;3.00;2.80;;;;;;;;;;5032191;28;20216;-75
2022/08/04 10:55:09;;;;;;;3.33;3.00;;;;;;;;;;5034384;28;20174;-75
2022/08/04 10:57:34;;;;;;;2.92;2.42;;;;;;;;;;5032279;28;20177;-75
2022/08/04 11:00:01;;;;;;;3.28;3.08;;;;;;;;;;5046033;28;20391;-75
2022/08/04 11:02:29;;;;;;;3.00;2.75;;;;;;;;;;5026192;28;20186;-75
2022/08/04 11:05:18;;;;;;;2.95;2.75;;;;;;;;;;5029309;28;20210;-76
2022/08/04 11:07:44;;;;;;;3.55;2.63;;;;;;;;;;5015682;28;20206;-75
2022/08/04 11:10:11;;;;;;;3.83;2.83;;;;;;;;;;5032753;28;20177;-75
2022/08/04 11:12:37;;;;;;;2.92;2.70;;;;;;;;;;5034029;28;20202;-75
2022/08/04 11:15:20;;;;;;;3.67;3.03;;;;;;;;;;5032719;28;20457;-75
2022/08/04 11:17:54;;;;;;;3.45;2.80;;;;;;;;;;5031200;28;20178;-75
2022/08/04 11:20:20;;;;;;;3.00;2.70;;;;;;;;;;5047319;28;20248;-76
2022/08/04 11:22:49;;;;;;;3.28;2.92;;;;;;;;;;5040677;28;20230;-76
2022/08/04 11:25:21;;;;;;;2.85;2.60;;;;;;;;;;5033645;28;20189;-75
2022/08/04 11:28:05;;;;;;;3.20;2.90;;;;;;;;;;5029237;28;20244;-75
2022/08/04 11:30:50;;;;;;;2.80;2.60;;;;;;;;;;5030591;28;20190;-75
2022/08/04 11:33:35;;;;;;;3.80;2.85;;;;;;;;;;5010037;28;20209;-75
2022/08/04 11:36:21;;;;;;;3.30;3.10;;;;;;;;;;5013459;28;20214;-75
2022/08/04 11:38:49;;;;;;;2.80;2.60;;;;;;;;;;5028097;28;20185;-75
2022/08/04 11:41:18;;;;;;;2.60;2.40;;;;;;;;;;5010613;28;20183;-76
2022/08/04 11:43:50;;;;;;;3.60;2.70;;;;;;;;;;5016876;28;20183;-75
2022/08/04 11:46:20;;;;;;;3.17;2.25;;;;;;;;;;5009759;28;20512;-75
2022/08/04 11:48:57;;;;;;;3.10;2.90;;;;;;;;;;5028114;28;20175;-75
2022/08/04 11:51:25;;;;;;;2.90;2.70;;;;;;;;;;5028988;28;20183;-75
2022/08/04 11:53:50;;;;;;;2.80;2.60;;;;;;;;;;5029346;28;20199;-75
2022/08/04 11:56:16;;;;;;;3.08;2.88;;;;;;;;;;5030376;28;20167;-75
2022/08/04 11:58:42;;;;;;;3.60;2.70;;;;;;;;;;5035058;28;20265;-75
2022/08/04 12:01:10;;;;;;;2.83;2.63;;;;;;;;;;5032621;28;20185;-77
2022/08/04 12:03:41;;;;;;;4.47;2.78;;;;;;;;;;5028595;28;20344;-72
2022/08/04 12:06:16;;;;;;;3.00;2.80;;;;;;;;;;5028691;28;20175;-72
2022/08/04 12:09:10;;;;;;;3.90;3.00;;;;;;;;;;5030840;28;20259;-72
2022/08/04 12:11:38;;;;;;;3.72;2.75;;;;;;;;;;5017398;28;20246;-72
2022/08/04 12:14:16;;;;;;;4.75;2.85;;;;;;;;;;5037151;28;20239;-72
2022/08/04 12:16:47;;;;;;;2.85;2.60;;;;;;;;;;5031257;28;20179;-72
2022/08/04 12:19:25;;;;;;;2.80;2.60;;;;;;;;;;5031472;28;20207;-72
2022/08/04 12:21:53;;;;;;;3.40;2.83;;;;;;;;;;5031557;28;20273;-72
2022/08/04 12:24:24;;;;;;;3.00;2.80;;;;;;;;;;5044606;28;20230;-72
2022/08/04 12:26:52;;;;;;;2.83;2.58;;;;;;;;;;5026148;28;20198;-72
2022/08/04 12:29:18;;;;;;;2.63;2.42;;;;;;;;;;5033437;28;20202;-71
2022/08/04 12:31:50;;;;;;;3.08;2.67;;;;;;;;;;5035909;28;20170;-72
2022/08/04 12:34:18;;;;;;;3.70;2.90;;;;;;;;;;5049581;28;20177;-73
2022/08/04 12:37:00;;;;;;;3.45;2.72;;;;;;;;;;5050746;28;20178;-72
2022/08/04 12:39:26;;;;;;;3.17;2.90;;;;;;;;;;5046805;28;20193;-71
2022/08/04 12:42:12;;;;;;;2.92;2.40;;;;;;;;;;5030085;28;20178;-72
2022/08/04 12:44:40;;;;;;;3.00;2.80;;;;;;;;;;5048997;28;20182;-72
2022/08/04 12:47:10;;;;;;;3.15;2.85;;;;;;;;;;5048030;28;20202;-72
2022/08/04 12:49:37;;;;;;;3.28;2.85;;;;;;;;;;5051571;28;20181;-72
2022/08/04 12:52:06;;;;;;;2.85;2.65;;;;;;;;;;5045647;28;20174;-72
2022/08/04 12:54:35;;;;;;;3.13;2.90;;;;;;;;;;5044487;28;20268;-72
2022/08/04 12:57:03;;;;;;;2.55;2.35;;;;;;;;;;5031516;28;20179;-72
2022/08/04 12:59:28;;;;;;;3.28;2.70;;;;;;;;;;5048316;28;20185;-72
2022/08/04 13:01:54;;;;;;;3.75;2.70;;;;;;;;;;5054171;28;20238;-72
2022/08/04 13:04:26;;;;;;;4.00;2.60;;;;;;;;;;5031791;28;20186;-71
2022/08/04 13:07:04;;;;;;;2.70;2.50;;;;;;;;;;5050790;28;20201;-72
2022/08/04 13:09:31;;;;;;;2.78;2.58;;;;;;;;;;5030476;28;20173;-73
2022/08/04 13:11:59;;;;;;;2.75;2.55;;;;;;;;;;5031357;28;20175;-72
2022/08/04 13:14:27;;;;;;;5.00;2.60;;;;;;;;;;5029615;28;20205;-72
2022/08/04 13:17:00;;;;;;;2.65;2.30;;;;;;;;;;5050621;28;20179;-72
2022/08/04 13:19:26;;;;;;;2.90;2.55;;;;;;;;;;5053437;28;20236;-72
2022/08/04 13:21:52;;;;;;;3.30;3.00;;;;;;;;;;5050430;28;20206;-72
2022/08/04 13:24:18;;;;;;;2.85;2.65;;;;;;;;;;5007418;28;20250;-71
2022/08/04 13:26:48;;;;;;;3.17;2.65;;;;;;;;;;5029347;28;20206;-72
2022/08/04 13:29:14;;;;;;;4.25;2.90;;;;;;;;;;5011505;28;20182;-75
2022/08/04 13:31:43;;;;;;;3.55;2.80;;;;;;;;;;5012932;28;20171;-75
2022/08/04 13:34:08;;;;;;;3.60;3.20;;;;;;;;;;5013115;28;20236;-76
2022/08/04 13:36:34;;;;;;;3.35;2.53;;;;;;;;;;5014694;28;20265;-75
2022/08/04 13:39:17;;;;;;;2.78;2.58;;;;;;;;;;5006438;28;20179;-76
2022/08/04 13:41:50;;;;;;;4.00;2.72;;;;;;;;;;5023011;28;20171;-75
2022/08/04 13:44:17;;;;;;;2.83;2.63;;;;;;;;;;5028268;28;20224;-76
2022/08/04 13:46:48;;;;;;;2.50;2.30;;;;;;;;;;5008971;28;20209;-76
2022/08/04 13:49:15;;;;;;;2.92;2.63;;;;;;;;;;5033117;28;20186;-75
2022/08/04 13:51:41;;;;;;;3.80;2.65;;;;;;;;;;5004125;28;20175;-75
2022/08/04 13:54:06;;;;;;;2.72;2.53;;;;;;;;;;5028387;28;20254;-76
2022/08/04 13:56:38;;;;;;;4.97;3.00;;;;;;;;;;5011331;28;20174;-74
2022/08/04 13:59:05;;;;;;;3.03;2.83;;;;;;;;;;5036661;28;20179;-75
2022/08/04 14:01:31;;;;;;;3.95;2.60;;;;;;;;;;5008956;28;20185;-75
2022/08/04 14:04:01;;;;;;;3.55;2.83;;;;;;;;;;5006744;28;20171;-75
2022/08/04 14:06:42;;;;;;;3.08;2.83;;;;;;;;;;5032477;28;20190;-75
2022/08/04 14:09:09;;;;;;;3.75;3.05;;;;;;;;;;5012894;28;20190;-74
2022/08/04 14:11:39;;;;;;;3.80;2.50;;;;;;;;;;5011708;28;20274;-73
2022/08/04 14:14:21;;;;;;;2.78;2.58;;;;;;;;;;5010247;28;20225;-73
2022/08/04 14:16:55;;;;;;;3.15;2.45;;;;;;;;;;5026698;28;20179;-73
2022/08/04 14:19:21;;;;;;;6.82;2.58;;;;;;;;;;5006067;28;20207;-72
2022/08/04 14:21:47;;;;;;;2.72;2.50;;;;;;;;;;5014184;28;20185;-73
2022/08/04 14:24:21;;;;;;;2.88;2.67;;;;;;;;;;5011582;28;20320;-73
2022/08/04 14:26:46;;;;;;;3.85;2.60;;;;;;;;;;5028607;28;20203;-73
2022/08/04 14:29:15;;;;;;;3.25;2.95;;;;;;;;;;5019315;28;20214;-73
2022/08/04 14:31:40;;;;;;;3.05;2.75;;;;;;;;;;5013374;28;20179;-74
2022/08/04 14:34:06;;;;;;;6.22;2.63;;;;;;;;;;5033404;28;20185;-74
2022/08/04 14:36:38;;;;;;;3.08;2.75;;;;;;;;;;5031496;28;20263;-72
2022/08/04 14:39:04;;;;;;;5.47;2.63;;;;;;;;;;5022439;28;20183;-73
2022/08/04 14:41:42;;;;;;;2.67;2.47;;;;;;;;;;5013673;28;20183;-73
2022/08/04 14:44:07;;;;;;;3.42;2.80;;;;;;;;;;5030354;28;20193;-73
2022/08/04 14:46:32;;;;;;;3.17;2.53;;;;;;;;;;5032785;28;20253;-73
2022/08/04 14:48:59;;;;;;;3.03;2.70;;;;;;;;;;5045211;28;20258;-73
2022/08/04 14:51:24;;;;;;;2.95;2.75;;;;;;;;;;5028020;28;20396;-74
2022/08/04 14:53:50;;;;;;;7.40;3.20;;;;;;;;;;5012048;28;20261;-73
2022/08/04 14:56:15;;;;;;;3.00;2.80;;;;;;;;;;5029895;28;20240;-73
2022/08/04 14:58:41;;;;;;;2.78;2.58;;;;;;;;;;5027900;28;20179;-73
2022/08/04 15:01:07;;;;;;;4.03;3.33;;;;;;;;;;5028098;28;20179;-73
2022/08/04 15:03:32;;;;;;;4.22;3.30;;;;;;;;;;5014893;28;20454;-72
2022/08/04 15:05:58;;;;;;;3.10;2.90;;;;;;;;;;5010361;28;20183;-73
2022/08/04 15:08:24;;;;;;;3.20;3.00;;;;;;;;;;5011854;28;20237;-73
2022/08/04 15:10:49;;;;;;;4.03;2.40;;;;;;;;;;5013001;28;20170;-73